createdAt,value
2023-03-03T00:01:19.526Z,30.98
2023-03-03T00:06:40.459Z,33.42
2023-03-03T00:12:06.296Z,37.40
2023-03-03T00:17:32.843Z,31.65
2023-03-03T00:22:53.867Z,35.00
2023-03-03T00:28:48.208Z,30.48
2023-03-03T00:34:27.714Z,33.40
2023-03-03T00:39:48.886Z,33.17
2023-03-03T00:45:27.523Z,31.20
2023-03-03T00:50:48.985Z,35.83
2023-03-03T00:56:09.775Z,30.20
2023-03-03T01:01:30.675Z,34.45
2023-03-03T01:06:51.215Z,36.58
2023-03-03T01:12:12.357Z,33.63
2023-03-03T01:17:34.416Z,30.77
2023-03-03T01:22:55.024Z,35.20
2023-03-03T01:28:16.203Z,33.33
2023-03-03T01:33:36.976Z,45.63
2023-03-03T01:38:57.763Z,34.78
2023-03-03T01:44:18.476Z,38.63
2023-03-03T01:50:04.448Z,38.90
2023-03-03T01:55:30.905Z,37.13
2023-03-03T02:00:57.747Z,33.88
2023-03-03T02:06:22.771Z,35.95
2023-03-03T02:11:45.751Z,37.08
2023-03-03T02:17:06.722Z,33.25
2023-03-03T02:22:40.228Z,36.60
2023-03-03T02:28:02.304Z,36.75
2023-03-03T02:33:23.491Z,34.72
2023-03-03T02:38:59.299Z,41.92
2023-03-03T02:44:26.618Z,36.85
2023-03-03T02:49:47.377Z,36.05
2023-03-03T02:55:08.719Z,34.90
2023-03-03T03:00:29.729Z,41.72
2023-03-03T03:05:50.260Z,33.28
2023-03-03T03:11:14.411Z,35.78
2023-03-03T03:16:36.165Z,38.40
2023-03-03T03:21:56.910Z,34.47
2023-03-03T03:27:19.371Z,39.97
2023-03-03T03:32:42.500Z,34.40
2023-03-03T03:38:04.198Z,40.88
2023-03-03T03:43:26.849Z,36.88
2023-03-03T03:48:47.907Z,35.00
2023-03-03T03:54:11.716Z,31.52
2023-03-03T03:59:34.031Z,30.23
2023-03-03T04:04:54.618Z,35.60
2023-03-03T04:10:15.403Z,32.45
2023-03-03T04:15:36.126Z,33.97
2023-03-03T04:20:57.652Z,30.27
2023-03-03T04:26:19.728Z,34.15
2023-03-03T04:31:42.335Z,32.97
2023-03-03T04:37:05.768Z,33.72
2023-03-03T04:42:28.295Z,33.10
2023-03-03T04:47:49.230Z,34.08
2023-03-03T04:53:11.016Z,35.80
2023-03-03T04:58:33.214Z,37.13
2023-03-03T05:03:53.769Z,33.63
2023-03-03T05:09:14.480Z,34.00
2023-03-03T05:14:35.189Z,35.47
2023-03-03T05:19:57.349Z,31.15
2023-03-03T05:25:18.230Z,35.95
2023-03-03T05:30:39.242Z,39.72
2023-03-03T05:36:00.348Z,30.30
2023-03-03T05:41:21.061Z,34.17
2023-03-03T05:46:42.767Z,33.05
2023-03-03T05:52:04.175Z,30.92
2023-03-03T05:57:24.910Z,33.15
2023-03-03T06:02:46.206Z,38.58
2023-03-03T06:08:07.233Z,36.13
2023-03-03T06:13:28.076Z,32.85
2023-03-03T06:18:48.996Z,30.63
2023-03-03T06:24:09.876Z,37.33
2023-03-03T06:29:30.836Z,33.08
2023-03-03T06:34:51.531Z,35.25
2023-03-03T06:40:12.757Z,35.13
2023-03-03T06:45:33.521Z,36.35
2023-03-03T06:50:54.122Z,29.17
2023-03-03T06:56:14.876Z,33.92
2023-03-03T07:01:38.456Z,24.80
2023-03-03T07:07:16.888Z,30.67
2023-03-03T07:12:37.960Z,32.95
2023-03-03T07:17:59.745Z,40.17
2023-03-03T07:23:42.599Z,39.55
2023-03-03T07:29:33.377Z,34.00
2023-03-03T07:40:34.895Z,38.25
2023-03-03T07:46:11.221Z,45.42
2023-03-03T07:51:42.102Z,42.55
2023-03-03T07:57:12.288Z,44.90
2023-03-03T08:08:37.031Z,39.35
2023-03-03T08:13:57.758Z,45.13
2023-03-03T08:19:18.896Z,44.15
2023-03-03T08:24:39.393Z,47.33
2023-03-03T08:30:00.127Z,49.63
2023-03-03T08:35:20.926Z,49.65
2023-03-03T08:40:42.586Z,50.35
2023-03-03T08:46:06.171Z,43.78
2023-03-03T08:51:27.431Z,41.92
2023-03-03T08:56:48.451Z,45.33
2023-03-03T09:02:09.376Z,47.53
2023-03-03T09:07:30.609Z,38.67
2023-03-03T09:12:51.837Z,28.10
2023-03-03T09:18:15.735Z,33.45
2023-03-03T09:23:38.745Z,37.50
2023-03-03T09:29:05.108Z,34.42
2023-03-03T09:34:42.729Z,41.13
2023-03-03T09:40:33.212Z,30.00
2023-03-03T09:46:23.539Z,41.22
2023-03-03T09:51:53.364Z,30.00
2023-03-03T09:57:34.270Z,41.40
2023-03-03T10:03:22.694Z,36.28
2023-03-03T10:09:12.007Z,32.13
2023-03-03T10:15:17.397Z,27.42
2023-03-03T10:20:59.624Z,28.63
2023-03-03T10:26:34.837Z,25.08
2023-03-03T10:32:03.138Z,31.52
2023-03-03T10:37:27.731Z,30.38
2023-03-03T10:43:31.883Z,21.10
2023-03-03T10:49:06.246Z,24.98
2023-03-03T10:54:38.671Z,24.05
2023-03-03T11:00:16.767Z,23.50
2023-03-03T11:05:48.278Z,23.67
2023-03-03T11:11:15.322Z,20.75
2023-03-03T11:17:16.284Z,23.50
2023-03-03T11:22:55.086Z,20.38
2023-03-03T11:28:21.988Z,20.48
2023-03-03T11:33:56.475Z,19.67
2023-03-03T11:39:22.243Z,23.55
2023-03-03T11:44:47.937Z,19.30
2023-03-03T11:50:14.218Z,13.98
2023-03-03T11:55:41.416Z,14.73
2023-03-03T12:01:20.059Z,13.00
2023-03-03T12:07:12.903Z,10.93
2023-03-03T12:13:05.128Z,13.75
2023-03-03T12:18:38.195Z,7.65
2023-03-03T12:24:26.213Z,10.60
2023-03-03T12:30:20.373Z,8.18
2023-03-03T12:35:56.240Z,8.57
2023-03-03T12:41:20.511Z,9.63
2023-03-03T12:47:02.373Z,9.70
2023-03-03T12:52:51.419Z,10.60
2023-03-03T12:58:24.133Z,7.82
2023-03-03T13:03:55.710Z,13.00
2023-03-03T13:09:41.176Z,9.75
2023-03-03T13:15:16.354Z,11.10
2023-03-03T13:20:46.255Z,9.73
2023-03-03T13:26:50.137Z,11.50
2023-03-03T13:32:23.282Z,13.13
2023-03-03T13:37:52.675Z,14.00
2023-03-03T13:43:15.995Z,9.98
2023-03-03T13:48:46.722Z,10.45
2023-03-03T13:54:20.548Z,10.40
2023-03-03T14:00:04.782Z,6.28
2023-03-03T14:05:48.582Z,6.95
2023-03-03T14:11:24.046Z,6.85
2023-03-03T14:16:54.863Z,7.25
2023-03-03T14:22:40.232Z,5.50
2023-03-03T14:28:16.119Z,6.85
2023-03-03T14:33:37.122Z,8.43
2023-03-03T14:38:57.978Z,6.13
2023-03-03T14:44:36.171Z,5.65
2023-03-03T14:50:00.422Z,9.13
2023-03-03T14:55:35.986Z,7.65
2023-03-03T15:01:12.333Z,6.72
2023-03-03T15:06:48.477Z,5.40
2023-03-03T15:12:24.830Z,5.82
2023-03-03T15:18:05.334Z,5.55
2023-03-03T15:23:51.631Z,5.72
2023-03-03T15:29:22.568Z,6.40
2023-03-03T15:35:12.145Z,5.72
2023-03-03T15:40:53.412Z,7.00
2023-03-03T15:46:35.197Z,7.68
2023-03-03T15:52:21.467Z,7.72
2023-03-03T15:58:33.356Z,9.43
2023-03-03T16:04:09.691Z,6.78
2023-03-03T16:09:52.299Z,8.32
2023-03-03T16:15:35.354Z,9.65
2023-03-03T16:21:02.377Z,7.78
2023-03-03T16:26:47.734Z,9.20
2023-03-03T16:32:22.833Z,14.77
2023-03-03T16:38:05.679Z,10.38
2023-03-03T16:43:38.491Z,5.47
2023-03-03T16:49:16.990Z,10.73
2023-03-03T16:54:58.629Z,6.43
2023-03-03T17:00:28.576Z,7.20
2023-03-03T17:05:58.135Z,6.07
2023-03-03T17:11:35.088Z,8.15
2023-03-03T17:17:01.199Z,8.48
2023-03-03T17:22:46.427Z,7.00
2023-03-03T17:28:07.245Z,10.13
2023-03-03T17:33:57.447Z,8.48
2023-03-03T17:39:51.953Z,8.02
2023-03-03T17:45:15.700Z,8.35
2023-03-03T17:50:59.100Z,9.50
2023-03-03T17:56:40.178Z,11.82
2023-03-03T18:02:16.579Z,9.80
2023-03-03T18:08:04.740Z,14.30
2023-03-03T18:13:50.449Z,9.57
2023-03-03T18:19:52.616Z,12.88
2023-03-03T18:25:17.107Z,9.38
2023-03-03T18:30:46.993Z,12.45
2023-03-03T18:36:36.395Z,12.02
2023-03-03T18:42:11.542Z,14.60
2023-03-03T18:47:57.694Z,10.38
2023-03-03T18:53:31.073Z,17.02
2023-03-03T18:58:53.691Z,9.65
2023-03-03T19:04:16.349Z,12.90
2023-03-03T19:09:57.144Z,10.65
2023-03-03T19:21:23.541Z,10.68
2023-03-03T19:27:09.865Z,11.80
2023-03-03T19:32:48.489Z,14.13
2023-03-03T19:38:32.353Z,10.95
2023-03-03T19:44:22.123Z,13.15
2023-03-03T19:50:10.357Z,12.38
2023-03-03T19:55:35.067Z,16.45
2023-03-03T20:00:55.705Z,15.85
2023-03-03T20:06:44.406Z,16.40
2023-03-03T20:12:16.469Z,14.32
2023-03-03T20:17:47.456Z,14.55
2023-03-03T20:23:26.710Z,10.85
2023-03-03T20:29:15.837Z,15.65
2023-03-03T20:35:03.224Z,12.40
2023-03-03T20:40:33.553Z,14.32
2023-03-03T20:46:08.256Z,11.73
2023-03-03T20:52:02.181Z,16.63
2023-03-03T20:57:38.661Z,16.08
2023-03-03T21:03:06.294Z,17.33
2023-03-03T21:08:48.573Z,22.58
2023-03-03T21:14:33.518Z,17.55
2023-03-03T21:19:54.592Z,19.63
2023-03-03T21:25:40.228Z,19.05
2023-03-03T21:31:15.488Z,17.75
2023-03-03T21:36:36.709Z,16.02
2023-03-03T21:42:09.484Z,15.98
2023-03-03T21:47:31.261Z,18.17
2023-03-03T21:52:52.402Z,22.13
2023-03-03T21:58:13.161Z,14.05
2023-03-03T22:03:34.416Z,17.58
2023-03-03T22:08:55.342Z,19.00
2023-03-03T22:14:16.122Z,20.02
2023-03-03T22:19:38.304Z,14.15
2023-03-03T22:24:59.044Z,16.05
2023-03-03T22:30:19.919Z,15.02
2023-03-03T22:35:40.826Z,16.42
2023-03-03T22:41:01.899Z,15.07
2023-03-03T22:46:23.175Z,16.83
2023-03-03T22:51:44.081Z,16.92
2023-03-03T22:57:04.735Z,17.02
2023-03-03T23:02:25.791Z,19.15
2023-03-03T23:07:46.772Z,16.92
2023-03-03T23:13:08.794Z,15.95
2023-03-03T23:18:29.625Z,19.10
2023-03-03T23:23:50.403Z,18.45
2023-03-03T23:29:10.982Z,18.30
2023-03-03T23:34:32.536Z,21.17
2023-03-03T23:39:53.123Z,15.05
2023-03-03T23:45:14.263Z,15.98
2023-03-03T23:50:37.256Z,21.88
2023-03-03T23:55:58.314Z,16.88
